»·PEaware :: EPIA510 KLAX-KLAX

EPIA510 :: KLAX-KLAX

FLIGHT INFORMATION

Flight Status: Arrived
Operator: Unknown
More flights by this operator :: More flights under this callsign
Pilot: Anonymous 18558 (18558)
Aircraft: CESSNA 172 SKYHAWK
(C172)
More flights by this aircraft type
Origin: KLAX Los Angeles Intl
United States
Destination: KLAX Los Angeles Intl
United States
More flights between these airports :: More routes between these airports
Route: +LAX
File this flight plan on PilotEdge
Remarks: NO SID
Altitude:
(Current/Filed)
8,000ft
Speed:
(Current/Filed)
100kts
Departed: 17-May-18 09:27 AM
Arrived: 17-May-18 09:59 AM
Distance/Time
Traveled:
1nm/0:31
Distance/Time
To Go:
Arrived

Flight Plot

Page will automatically refresh every two minutes.

Flight plan parsing failed; only flown route is shown


Map Options




Map Legend


Flown Route
Filed Route
Departure Airport
Arrival Airport
Navaid (VOR, NDB)
Fix

Horizontal Profiles

Position Reports

Time Latitude Longitude Heading Altitude Ground
Speed
17-May-18 08:42 33.946226 -118.402417 353 113ft 0kts
17-May-18 08:43 33.946226 -118.402417 353 113ft 0kts
17-May-18 08:44 33.946226 -118.402417 353 113ft 0kts
17-May-18 08:45 33.946226 -118.402417 353 113ft 0kts
17-May-18 08:46 33.946226 -118.402417 353 113ft 0kts
17-May-18 08:47 33.946226 -118.402417 353 113ft 0kts
17-May-18 08:48 33.946226 -118.402417 353 113ft 0kts
17-May-18 08:49 33.946226 -118.402417 353 113ft 0kts
17-May-18 08:50 33.946226 -118.402417 353 113ft 0kts
17-May-18 08:51 33.946226 -118.402417 353 113ft 0kts
17-May-18 08:52 33.946226 -118.402417 353 113ft 0kts
17-May-18 08:53 33.946226 -118.402417 353 113ft 0kts
17-May-18 08:54 33.946226 -118.402417 353 113ft 0kts
17-May-18 08:55 33.946226 -118.402417 353 113ft 0kts
17-May-18 08:56 33.946226 -118.402417 353 113ft 0kts
17-May-18 08:57 33.946226 -118.402417 353 113ft 0kts
17-May-18 08:58 33.946226 -118.402417 353 113ft 0kts
17-May-18 08:59 33.946226 -118.402417 353 113ft 0kts
17-May-18 09:00 33.946226 -118.402417 353 113ft 0kts
17-May-18 09:01 33.946226 -118.402417 353 113ft 0kts
17-May-18 09:02 33.946226 -118.402417 353 113ft 0kts
17-May-18 09:03 33.946226 -118.402417 353 113ft 0kts
17-May-18 09:04 33.946226 -118.402417 353 113ft 0kts
17-May-18 09:05 33.946226 -118.402417 353 113ft 0kts
17-May-18 09:06 33.946226 -118.402417 353 113ft 0kts
17-May-18 09:07 33.946226 -118.402417 353 113ft 0kts
17-May-18 09:08 33.946226 -118.402417 353 113ft 0kts
17-May-18 09:09 33.946226 -118.402417 353 113ft 0kts
17-May-18 09:10 33.946226 -118.402417 353 113ft 0kts
17-May-18 09:11 33.946226 -118.402417 353 113ft 0kts
17-May-18 09:12 33.946226 -118.402417 353 113ft 0kts
17-May-18 09:13 33.946226 -118.402417 353 113ft 0kts
17-May-18 09:14 33.946226 -118.402417 353 113ft 0kts
17-May-18 09:15 33.946226 -118.402417 353 113ft 0kts
17-May-18 09:16 33.946226 -118.402417 353 113ft 0kts
17-May-18 09:17 33.946226 -118.402417 353 113ft 0kts
17-May-18 09:18 33.948008 -118.402623 20 114ft 18kts
17-May-18 09:19 33.948820 -118.400610 349 110ft 4kts
17-May-18 09:20 33.949472 -118.400697 16 110ft 0kts
17-May-18 09:21 33.949480 -118.400695 8 110ft 0kts
17-May-18 09:22 33.949481 -118.400694 8 110ft 0kts
17-May-18 09:23 33.949480 -118.400695 8 110ft 0kts
17-May-18 09:24 33.949480 -118.400695 8 110ft 0kts
17-May-18 09:25 33.949480 -118.400695 8 110ft 0kts
17-May-18 09:26 33.951075 -118.401121 178 109ft 3kts
17-May-18 09:27 33.948408 -118.416713 259 526ft 77kts
17-May-18 09:28 33.945425 -118.442074 265 1542ft 76kts
17-May-18 09:29 33.943765 -118.467630 264 2488ft 77kts
17-May-18 09:30 33.941776 -118.493476 263 3356ft 81kts
17-May-18 09:31 33.945674 -118.516860 352 4197ft 81kts
17-May-18 09:32 33.968322 -118.520258 352 4977ft 83kts
17-May-18 09:33 33.991807 -118.506161 24 5025ft 94kts
17-May-18 09:34 34.014814 -118.493298 23 5087ft 100kts
17-May-18 09:35 34.043695 -118.477318 24 4821ft 117kts
17-May-18 09:36 34.066603 -118.455647 71 4960ft 115kts
17-May-18 09:37 34.070079 -118.418640 82 4954ft 105kts
17-May-18 09:38 34.073836 -118.383956 80 4915ft 108kts
17-May-18 09:39 34.077492 -118.347932 81 4961ft 115kts
17-May-18 09:40 34.081945 -118.311553 81 4893ft 110kts
17-May-18 09:41 34.085113 -118.276915 76 4977ft 103kts
17-May-18 09:42 34.084979 -118.242415 100 4952ft 106kts
17-May-18 09:43 34.079270 -118.206745 99 4983ft 108kts
17-May-18 09:44 34.073048 -118.170929 100 4985ft 110kts
17-May-18 09:45 34.067539 -118.134932 104 4961ft 112kts
17-May-18 09:46 34.060854 -118.098550 100 4934ft 110kts
17-May-18 09:47 34.044037 -118.072343 151 4558ft 103kts
17-May-18 09:48 34.018528 -118.055920 151 3902ft 105kts
17-May-18 09:49 33.993968 -118.057335 241 3261ft 103kts
17-May-18 09:50 33.981117 -118.088327 243 2990ft 108kts
17-May-18 09:51 33.967752 -118.120985 243 2960ft 106kts
17-May-18 09:52 33.960527 -118.155206 263 2953ft 106kts
17-May-18 09:53 33.956790 -118.190052 266 2413ft 103kts
17-May-18 09:54 33.953580 -118.223844 262 1852ft 98kts
17-May-18 09:55 33.949650 -118.259025 263 1867ft 107kts
17-May-18 09:56 33.946497 -118.293481 264 1601ft 102kts
17-May-18 09:57 33.942804 -118.327507 264 1042ft 103kts
17-May-18 09:58 33.939488 -118.361867 262 484ft 102kts
17-May-18 09:59 33.936924 -118.386679 263 99ft 38kts
17-May-18 10:00 33.935456 -118.393714 179 103ft 10kts
17-May-18 10:01 33.935295 -118.393713 180 103ft 0kts
17-May-18 10:02 33.935295 -118.393713 180 103ft 0kts
17-May-18 10:03 33.933182 -118.394564 295 105ft 4kts
17-May-18 10:04 33.933265 -118.394615 353 105ft 0kts
17-May-18 10:05 33.933265 -118.394615 353 105ft 0kts
17-May-18 10:06 33.933265 -118.394615 353 105ft 0kts
17-May-18 10:07 33.933265 -118.394615 353 105ft 0kts
17-May-18 10:08 33.933265 -118.394615 353 105ft 0kts
17-May-18 10:09 33.933265 -118.394615 353 105ft 0kts
17-May-18 10:10 33.933265 -118.394615 353 105ft 0kts
17-May-18 10:11 33.933265 -118.394615 353 105ft 0kts
17-May-18 10:12 33.933265 -118.394615 353 105ft 0kts
17-May-18 10:13 33.933265 -118.394615 353 105ft 0kts

Navigation Log

Ident Type
Flight plan parsing failed, navigation log unavailable